createdAt,value
2023-07-22T00:01:52.730Z,84.56
2023-07-22T00:04:20.233Z,84.60
2023-07-22T00:06:47.800Z,84.33
2023-07-22T00:09:15.627Z,84.03
2023-07-22T00:11:43.381Z,83.54
2023-07-22T00:14:11.054Z,83.86
2023-07-22T00:16:38.646Z,84.46
2023-07-22T00:19:07.736Z,84.46
2023-07-22T00:21:35.759Z,83.96
2023-07-22T00:24:05.162Z,83.58
2023-07-22T00:26:33.085Z,84.31
2023-07-22T00:29:00.680Z,84.80
2023-07-22T00:31:28.337Z,85.02
2023-07-22T00:33:56.083Z,84.70
2023-07-22T00:36:23.824Z,85.64
2023-07-22T00:38:53.303Z,85.27
2023-07-22T00:41:20.811Z,84.90
2023-07-22T00:43:48.255Z,84.67
2023-07-22T00:46:16.169Z,84.21
2023-07-22T00:48:43.661Z,84.63
2023-07-22T00:51:11.339Z,84.51
2023-07-22T00:53:39.328Z,84.56
2023-07-22T00:56:07.033Z,84.28
2023-07-22T00:58:35.279Z,84.23
2023-07-22T01:01:03.105Z,84.67
2023-07-22T01:03:30.582Z,84.33
2023-07-22T01:06:00.982Z,84.08
2023-07-22T01:08:29.395Z,84.16
2023-07-22T01:10:57.245Z,83.74
2023-07-22T01:13:24.955Z,84.06
2023-07-22T01:15:53.124Z,84.25
2023-07-22T01:18:21.933Z,83.88
2023-07-22T01:20:49.746Z,83.77
2023-07-22T01:23:17.532Z,83.76
2023-07-22T01:25:45.594Z,83.62
2023-07-22T01:28:13.376Z,83.40
2023-07-22T01:30:41.310Z,83.36
2023-07-22T01:33:09.564Z,83.24
2023-07-22T01:35:37.211Z,83.24
2023-07-22T01:38:05.031Z,83.31
2023-07-22T01:40:32.624Z,83.49
2023-07-22T01:43:00.382Z,83.70
2023-07-22T01:45:27.998Z,83.37
2023-07-22T01:47:55.876Z,83.43
2023-07-22T01:50:23.917Z,83.57
2023-07-22T01:52:51.730Z,83.52
2023-07-22T01:55:19.468Z,83.32
2023-07-22T01:57:46.936Z,83.41
2023-07-22T02:00:15.616Z,83.39
2023-07-22T02:02:43.655Z,83.26
2023-07-22T02:05:11.864Z,83.40
2023-07-22T02:07:40.408Z,84.06
2023-07-22T02:10:10.068Z,83.76
2023-07-22T02:12:38.021Z,84.02
2023-07-22T02:15:07.204Z,84.12
2023-07-22T02:17:35.107Z,84.50
2023-07-22T02:20:04.878Z,84.52
2023-07-22T02:22:32.440Z,85.43
2023-07-22T02:25:00.271Z,84.77
2023-07-22T02:27:28.157Z,84.66
2023-07-22T02:29:55.730Z,84.68
2023-07-22T02:32:23.504Z,84.54
2023-07-22T02:34:51.229Z,84.43
2023-07-22T02:37:18.853Z,84.23
2023-07-22T02:39:46.477Z,84.12
2023-07-22T02:42:14.035Z,84.02
2023-07-22T02:44:41.678Z,83.99
2023-07-22T02:47:09.441Z,83.97
2023-07-22T02:49:36.907Z,84.07
2023-07-22T02:52:05.241Z,84.02
2023-07-22T02:54:35.192Z,83.71
2023-07-22T02:57:04.199Z,83.89
2023-07-22T02:59:32.729Z,84.21
2023-07-22T03:02:00.507Z,84.03
2023-07-22T03:04:28.163Z,84.09
2023-07-22T03:06:55.812Z,84.13
2023-07-22T03:09:23.328Z,84.18
2023-07-22T03:11:51.189Z,84.13
2023-07-22T03:14:21.912Z,84.10
2023-07-22T03:16:49.618Z,83.96
2023-07-22T03:19:17.274Z,83.94
2023-07-22T03:21:45.103Z,83.98
2023-07-22T03:24:12.966Z,84.07
2023-07-22T03:26:40.801Z,84.12
2023-07-22T03:29:08.651Z,84.14
2023-07-22T03:31:36.755Z,84.29
2023-07-22T03:34:04.352Z,84.39
2023-07-22T03:36:35.196Z,84.03
2023-07-22T03:39:03.680Z,84.04
2023-07-22T03:41:31.355Z,84.13
2023-07-22T03:43:58.975Z,84.17
2023-07-22T03:46:27.037Z,84.27
2023-07-22T03:48:55.368Z,84.38
2023-07-22T03:51:23.040Z,84.32
2023-07-22T03:53:50.776Z,87.36
2023-07-22T03:56:18.508Z,88.69
2023-07-22T03:58:46.441Z,86.37
2023-07-22T04:01:14.420Z,81.66
2023-07-22T04:03:42.199Z,76.92
2023-07-22T04:06:10.159Z,72.97
2023-07-22T04:08:38.049Z,68.97
2023-07-22T04:11:05.597Z,66.00
2023-07-22T04:13:33.367Z,62.62
2023-07-22T04:16:01.270Z,60.57
2023-07-22T04:18:31.755Z,58.87
2023-07-22T04:20:59.479Z,55.99
2023-07-22T04:23:28.130Z,55.93
2023-07-22T04:25:55.997Z,56.21
2023-07-22T04:28:25.417Z,56.96
2023-07-22T04:30:59.525Z,58.19
2023-07-22T04:33:28.617Z,59.21
2023-07-22T04:35:59.817Z,60.54
2023-07-22T04:38:27.871Z,61.64
2023-07-22T04:40:55.539Z,63.15
2023-07-22T04:43:23.509Z,64.41
2023-07-22T04:45:51.472Z,65.39
2023-07-22T04:48:21.558Z,66.19
2023-07-22T04:50:49.069Z,68.22
2023-07-22T04:53:18.576Z,68.11
2023-07-22T04:55:46.788Z,69.75
2023-07-22T04:58:14.538Z,71.12
2023-07-22T05:00:43.530Z,69.24
2023-07-22T05:03:11.614Z,69.00
2023-07-22T05:05:39.644Z,68.38
2023-07-22T05:08:08.805Z,67.66
2023-07-22T05:10:38.421Z,67.06
2023-07-22T05:13:06.222Z,66.27
2023-07-22T05:15:33.787Z,65.50
2023-07-22T05:18:01.877Z,64.86
2023-07-22T05:20:29.729Z,65.07
2023-07-22T05:22:57.478Z,65.52
2023-07-22T05:25:25.482Z,66.34
2023-07-22T05:27:53.052Z,67.00
2023-07-22T05:30:34.120Z,67.86
2023-07-22T05:32:54.725Z,68.21
2023-07-22T05:35:22.332Z,68.60
2023-07-22T05:37:49.972Z,68.84
2023-07-22T05:40:17.758Z,69.35
2023-07-22T05:42:45.355Z,69.88
2023-07-22T05:45:14.559Z,69.92
2023-07-22T05:47:42.040Z,70.37
2023-07-22T05:50:10.047Z,70.96
2023-07-22T05:52:37.962Z,71.40
2023-07-22T05:55:06.174Z,71.74
2023-07-22T05:57:34.059Z,71.89
2023-07-22T06:00:08.899Z,72.23
2023-07-22T06:02:34.071Z,72.59
2023-07-22T06:05:02.270Z,72.42
2023-07-22T06:07:30.286Z,72.55
2023-07-22T06:09:58.110Z,72.50
2023-07-22T06:14:54.895Z,72.50
2023-07-22T06:17:22.693Z,72.59
2023-07-22T06:19:50.550Z,72.56
2023-07-22T06:22:18.038Z,72.65
2023-07-22T06:24:45.801Z,72.38
2023-07-22T06:27:13.661Z,73.63
2023-07-22T06:29:41.160Z,76.82
2023-07-22T06:32:09.213Z,74.43
2023-07-22T06:34:36.909Z,70.91
2023-07-22T06:37:05.100Z,68.33
2023-07-22T06:39:32.916Z,67.30
2023-07-22T06:42:00.604Z,66.77
2023-07-22T06:44:28.507Z,66.58
2023-07-22T06:46:56.116Z,66.58
2023-07-22T06:49:23.970Z,66.56
2023-07-22T06:51:52.594Z,66.87
2023-07-22T06:54:20.489Z,67.30
2023-07-22T06:56:48.332Z,68.01
2023-07-22T06:59:16.051Z,68.18
2023-07-22T07:01:43.942Z,68.30
2023-07-22T07:04:11.660Z,68.47
2023-07-22T07:06:39.414Z,68.45
2023-07-22T07:09:07.092Z,68.59
2023-07-22T07:11:35.052Z,68.53
2023-07-22T07:14:04.162Z,68.82
2023-07-22T07:16:32.976Z,68.45
2023-07-22T07:19:02.098Z,68.05
2023-07-22T07:21:29.658Z,67.92
2023-07-22T07:23:57.257Z,68.06
2023-07-22T07:26:25.309Z,67.98
2023-07-22T07:28:53.156Z,67.65
2023-07-22T07:31:21.243Z,67.93
2023-07-22T07:33:49.130Z,67.92
2023-07-22T07:36:16.909Z,67.90
2023-07-22T07:38:44.528Z,67.64
2023-07-22T07:41:13.117Z,67.43
2023-07-22T07:43:41.894Z,67.28
2023-07-22T07:46:28.525Z,66.87
2023-07-22T07:49:01.388Z,66.39
2023-07-22T07:51:31.876Z,66.26
2023-07-22T07:54:00.606Z,65.65
2023-07-22T07:56:29.879Z,65.43
2023-07-22T07:58:57.850Z,65.80
2023-07-22T08:01:25.657Z,65.79
2023-07-22T08:03:53.435Z,65.54
2023-07-22T08:06:21.312Z,65.57
2023-07-22T08:08:49.970Z,65.10
2023-07-22T08:11:17.545Z,64.83
2023-07-22T08:13:45.467Z,64.74
2023-07-22T08:16:14.727Z,65.14
2023-07-22T08:18:42.546Z,64.86
2023-07-22T08:21:10.755Z,64.61
2023-07-22T08:23:38.593Z,64.63
2023-07-22T08:26:06.694Z,64.41
2023-07-22T08:28:35.714Z,64.17
2023-07-22T08:31:04.070Z,63.71
2023-07-22T08:36:03.136Z,63.45
2023-07-22T08:38:31.003Z,63.33
2023-07-22T08:41:01.275Z,62.74
2023-07-22T08:43:30.531Z,61.83
2023-07-22T08:46:01.830Z,61.60
2023-07-22T08:48:33.447Z,61.72
2023-07-22T08:51:09.512Z,61.37
2023-07-22T08:53:38.405Z,61.79
2023-07-22T08:56:06.637Z,61.97
2023-07-22T08:58:35.631Z,61.47
2023-07-22T09:01:04.072Z,61.21
2023-07-22T09:03:33.234Z,61.55
2023-07-22T09:06:02.325Z,61.31
2023-07-22T09:08:30.463Z,61.10
2023-07-22T09:10:58.892Z,61.04
2023-07-22T09:13:28.086Z,60.86
2023-07-22T09:16:01.197Z,60.48
2023-07-22T09:18:29.146Z,60.80
2023-07-22T09:20:56.732Z,60.68
2023-07-22T09:23:38.316Z,59.49
2023-07-22T09:26:18.380Z,58.94
2023-07-22T09:28:57.925Z,57.17
2023-07-22T09:31:28.888Z,54.16
2023-07-22T09:34:12.112Z,53.17
2023-07-22T09:36:58.170Z,52.13
2023-07-22T09:39:25.684Z,51.71
2023-07-22T09:41:55.849Z,51.02
2023-07-22T09:44:24.250Z,51.48
2023-07-22T09:46:51.969Z,51.71
2023-07-22T09:49:20.041Z,51.43
2023-07-22T09:52:00.948Z,51.62
2023-07-22T09:54:17.275Z,52.52
2023-07-22T09:56:48.276Z,52.94
2023-07-22T09:59:23.600Z,52.65
2023-07-22T10:01:52.756Z,53.06
2023-07-22T10:04:22.746Z,53.19
2023-07-22T10:06:51.315Z,53.50
2023-07-22T10:09:21.526Z,53.31
2023-07-22T10:11:49.499Z,52.26
2023-07-22T10:14:18.511Z,52.07
2023-07-22T10:16:46.264Z,51.74
2023-07-22T10:19:14.006Z,50.70
2023-07-22T10:21:41.829Z,49.51
2023-07-22T10:24:11.012Z,49.62
2023-07-22T10:26:47.346Z,50.02
2023-07-22T10:29:11.819Z,48.88
2023-07-22T10:31:39.545Z,49.79
2023-07-22T10:34:07.487Z,48.68
2023-07-22T10:36:37.428Z,47.43
2023-07-22T10:39:05.563Z,46.98
2023-07-22T10:41:35.830Z,46.28
2023-07-22T10:44:03.694Z,45.88
2023-07-22T10:46:39.436Z,46.41
2023-07-22T10:49:16.621Z,47.20
2023-07-22T10:51:52.276Z,48.44
2023-07-22T10:54:34.987Z,49.10
2023-07-22T10:57:23.301Z,49.31
2023-07-22T10:59:52.721Z,48.97
2023-07-22T11:02:29.266Z,49.10
2023-07-22T11:04:59.724Z,49.75
2023-07-22T11:07:36.145Z,50.15
2023-07-22T11:10:14.401Z,50.38
2023-07-22T11:12:44.903Z,50.40
2023-07-22T11:15:18.543Z,50.27
2023-07-22T11:17:46.536Z,49.37
2023-07-22T11:20:14.293Z,48.12
2023-07-22T11:22:44.108Z,47.05
2023-07-22T11:25:19.613Z,46.18
2023-07-22T11:27:47.536Z,44.97
2023-07-22T11:30:16.644Z,45.54
2023-07-22T11:32:45.239Z,46.03
2023-07-22T11:35:12.870Z,45.72
2023-07-22T11:37:40.758Z,45.33
2023-07-22T11:40:14.195Z,44.15
2023-07-22T11:42:41.951Z,43.71
2023-07-22T11:45:10.070Z,44.16
2023-07-22T11:47:37.621Z,44.07
2023-07-22T11:50:06.429Z,44.50
2023-07-22T11:52:34.365Z,45.39
2023-07-22T11:55:04.045Z,45.31
2023-07-22T11:57:31.984Z,44.80
2023-07-22T11:59:59.678Z,44.77
2023-07-22T12:02:29.615Z,45.27
2023-07-22T12:05:05.902Z,45.26
2023-07-22T12:07:37.234Z,44.96
2023-07-22T12:10:07.756Z,45.07
2023-07-22T12:12:48.100Z,44.09
2023-07-22T12:15:24.039Z,43.84
2023-07-22T12:17:56.291Z,42.83
2023-07-22T12:20:32.396Z,43.10
2023-07-22T12:23:00.463Z,42.42
2023-07-22T12:25:28.466Z,42.38
2023-07-22T12:27:56.207Z,41.86
2023-07-22T12:30:24.784Z,41.81
2023-07-22T12:32:52.722Z,42.13
2023-07-22T12:35:20.537Z,41.98
2023-07-22T12:37:48.009Z,42.40
2023-07-22T12:40:15.803Z,41.48
2023-07-22T12:42:43.488Z,41.67
2023-07-22T12:45:11.252Z,41.46
2023-07-22T12:47:39.140Z,40.18
2023-07-22T12:50:10.110Z,41.17
2023-07-22T12:52:38.630Z,41.53
2023-07-22T12:55:07.201Z,41.84
2023-07-22T12:57:34.963Z,42.15
2023-07-22T13:00:05.161Z,41.23
2023-07-22T13:02:32.931Z,41.39
2023-07-22T13:05:00.973Z,40.04
2023-07-22T13:07:29.041Z,40.70
2023-07-22T13:10:02.270Z,40.86
2023-07-22T13:12:30.165Z,40.23
2023-07-22T13:14:57.839Z,40.72
2023-07-22T13:17:25.625Z,41.01
2023-07-22T13:19:53.239Z,41.05
2023-07-22T13:22:21.122Z,40.49
2023-07-22T13:24:48.994Z,40.63
2023-07-22T13:27:16.722Z,41.06
2023-07-22T13:29:44.546Z,40.46
2023-07-22T13:32:12.125Z,40.29
2023-07-22T13:34:39.854Z,40.39
2023-07-22T13:37:07.652Z,41.10
2023-07-22T13:39:35.728Z,41.06
2023-07-22T13:42:04.014Z,40.40
2023-07-22T13:44:31.656Z,40.12
2023-07-22T13:46:59.332Z,39.54
2023-07-22T13:49:27.190Z,39.63
2023-07-22T13:51:54.870Z,39.58
2023-07-22T13:54:22.268Z,39.49
2023-07-22T13:56:49.755Z,38.55
2023-07-22T13:59:17.729Z,38.73
2023-07-22T14:01:45.103Z,38.81
2023-07-22T14:04:12.760Z,39.42
2023-07-22T14:06:40.295Z,39.35
2023-07-22T14:09:07.999Z,39.11
2023-07-22T14:11:35.788Z,39.42
2023-07-22T14:14:03.290Z,39.98
2023-07-22T14:16:30.817Z,40.56
2023-07-22T14:18:58.713Z,40.06
2023-07-22T14:21:26.709Z,40.20
2023-07-22T14:23:55.757Z,39.27
2023-07-22T14:26:23.332Z,39.24
2023-07-22T14:28:51.612Z,39.46
2023-07-22T14:31:19.647Z,39.54
2023-07-22T14:33:47.790Z,39.72
2023-07-22T14:36:15.941Z,39.41
2023-07-22T14:38:43.643Z,39.89
2023-07-22T14:41:11.832Z,40.32
2023-07-22T14:43:39.580Z,41.03
2023-07-22T14:46:07.169Z,40.96
2023-07-22T14:48:35.026Z,41.06
2023-07-22T14:51:02.681Z,41.65
2023-07-22T14:53:30.101Z,41.60
2023-07-22T14:55:57.674Z,42.16
2023-07-22T14:58:25.255Z,42.38
2023-07-22T15:00:52.952Z,42.24
2023-07-22T15:03:20.543Z,42.13
2023-07-22T15:05:48.387Z,42.42
2023-07-22T15:08:16.148Z,41.96
2023-07-22T15:10:43.935Z,42.11
2023-07-22T15:13:11.695Z,42.40
2023-07-22T15:15:39.108Z,42.51
2023-07-22T15:18:06.812Z,42.66
2023-07-22T15:20:36.001Z,42.61
2023-07-22T15:23:03.671Z,42.60
2023-07-22T15:25:31.647Z,42.55
2023-07-22T15:27:59.591Z,42.35
2023-07-22T15:30:27.222Z,42.38
2023-07-22T15:32:54.881Z,42.23
2023-07-22T15:35:24.647Z,41.94
2023-07-22T15:37:53.629Z,42.09
2023-07-22T15:40:21.927Z,42.11
2023-07-22T15:42:50.077Z,42.39
2023-07-22T15:45:18.006Z,42.27
2023-07-22T15:47:45.592Z,42.19
2023-07-22T15:50:13.180Z,42.23
2023-07-22T15:52:40.605Z,42.29
2023-07-22T15:55:08.591Z,42.23
2023-07-22T15:57:36.393Z,42.59
2023-07-22T16:00:07.351Z,42.78
2023-07-22T16:02:35.369Z,42.81
2023-07-22T16:05:04.825Z,42.87
2023-07-22T16:07:34.817Z,42.86
2023-07-22T16:10:03.456Z,43.14
2023-07-22T16:12:30.905Z,43.38
2023-07-22T16:14:58.442Z,43.40
2023-07-22T16:17:25.960Z,43.70
2023-07-22T16:19:53.431Z,43.79
2023-07-22T16:22:21.025Z,43.71
2023-07-22T16:24:49.735Z,43.94
2023-07-22T16:27:17.634Z,44.19
2023-07-22T16:29:45.263Z,44.37
2023-07-22T16:32:12.656Z,44.29
2023-07-22T16:34:40.144Z,44.47
2023-07-22T16:37:07.698Z,44.57
2023-07-22T16:39:35.209Z,44.62
2023-07-22T16:42:02.874Z,44.77
2023-07-22T16:44:31.184Z,44.90
2023-07-22T16:46:59.043Z,45.07
2023-07-22T16:49:29.206Z,44.91
2023-07-22T16:51:56.838Z,45.12
2023-07-22T16:54:24.543Z,45.21
2023-07-22T16:56:52.086Z,45.62
2023-07-22T16:59:19.731Z,45.87
2023-07-22T17:01:47.511Z,45.99
2023-07-22T17:04:15.158Z,46.15
2023-07-22T17:06:42.667Z,46.36
2023-07-22T17:09:12.306Z,46.47
2023-07-22T17:11:40.256Z,46.64
2023-07-22T17:14:07.831Z,46.89
2023-07-22T17:16:35.098Z,47.10
2023-07-22T17:19:02.924Z,47.32
2023-07-22T17:21:30.940Z,47.59
2023-07-22T17:23:58.658Z,47.89
2023-07-22T17:26:26.201Z,48.11
2023-07-22T17:28:53.689Z,48.38
2023-07-22T17:31:21.275Z,48.76
2023-07-22T17:33:48.839Z,48.94
2023-07-22T17:36:16.270Z,49.22
2023-07-22T17:38:44.029Z,49.42
2023-07-22T17:41:12.707Z,49.62
2023-07-22T17:43:40.418Z,49.86
2023-07-22T17:46:08.039Z,50.19
2023-07-22T17:48:35.622Z,50.63
2023-07-22T17:51:03.326Z,50.87
2023-07-22T17:53:31.054Z,51.14
2023-07-22T17:55:59.119Z,51.41
2023-07-22T17:58:27.578Z,51.76
2023-07-22T18:00:55.309Z,52.12
2023-07-22T18:03:23.283Z,52.55
2023-07-22T18:05:50.804Z,52.86
2023-07-22T18:08:20.514Z,53.22
2023-07-22T18:10:48.438Z,53.45
2023-07-22T18:13:16.224Z,53.85
2023-07-22T18:15:43.781Z,54.29
2023-07-22T18:18:11.486Z,54.48
2023-07-22T18:20:38.989Z,54.69
2023-07-22T18:23:06.551Z,54.93
2023-07-22T18:25:36.148Z,55.23
2023-07-22T18:28:03.986Z,55.41
2023-07-22T18:30:31.932Z,55.72
2023-07-22T18:32:59.683Z,56.03
2023-07-22T18:35:27.314Z,56.36
2023-07-22T18:37:55.074Z,56.88
2023-07-22T18:40:22.640Z,57.48
2023-07-22T18:42:50.347Z,57.76
2023-07-22T18:45:17.965Z,57.96
2023-07-22T18:47:45.430Z,58.38
2023-07-22T18:50:16.066Z,58.80
2023-07-22T18:52:43.678Z,59.09
2023-07-22T18:55:11.620Z,59.38
2023-07-22T18:57:39.653Z,59.74
2023-07-22T19:00:08.610Z,60.11
2023-07-22T19:02:36.188Z,60.30
2023-07-22T19:05:04.159Z,60.47
2023-07-22T19:07:33.233Z,60.96
2023-07-22T19:10:00.828Z,61.46
2023-07-22T19:12:29.434Z,62.03
2023-07-22T19:14:57.235Z,62.99
2023-07-22T19:17:26.331Z,63.23
2023-07-22T19:19:54.082Z,63.51
2023-07-22T19:22:21.567Z,63.76
2023-07-22T19:24:49.461Z,64.33
2023-07-22T19:27:17.130Z,64.40
2023-07-22T19:29:44.688Z,64.96
2023-07-22T19:32:12.467Z,65.38
2023-07-22T19:34:39.963Z,65.58
2023-07-22T19:37:07.553Z,66.02
2023-07-22T19:39:35.324Z,66.56
2023-07-22T19:42:03.508Z,66.73
2023-07-22T19:44:31.090Z,67.12
2023-07-22T19:47:00.791Z,67.23
2023-07-22T19:49:29.575Z,67.70
2023-07-22T19:51:56.922Z,67.94
2023-07-22T19:54:26.256Z,68.22
2023-07-22T19:56:53.844Z,68.24
2023-07-22T19:59:21.413Z,68.48
2023-07-22T20:01:48.790Z,69.02
2023-07-22T20:04:16.309Z,68.93
2023-07-22T20:06:44.265Z,69.02
2023-07-22T20:09:11.913Z,69.08
2023-07-22T20:11:39.746Z,69.18
2023-07-22T20:14:07.461Z,69.62
2023-07-22T20:16:35.510Z,69.56
2023-07-22T20:19:03.070Z,69.56
2023-07-22T20:21:31.035Z,69.69
2023-07-22T20:23:58.579Z,69.97
2023-07-22T20:26:26.037Z,70.21
2023-07-22T20:28:53.715Z,70.27
2023-07-22T20:31:21.561Z,70.22
2023-07-22T20:33:49.127Z,70.43
2023-07-22T20:36:17.474Z,70.37
2023-07-22T20:38:45.264Z,70.76
2023-07-22T20:41:14.383Z,70.87
2023-07-22T20:43:41.895Z,71.23
2023-07-22T20:46:09.420Z,71.45
2023-07-22T20:48:37.091Z,71.53
2023-07-22T20:51:04.878Z,71.64
2023-07-22T20:53:34.457Z,71.86
2023-07-22T20:56:02.588Z,72.05
2023-07-22T20:58:30.628Z,72.18
2023-07-22T21:01:01.964Z,72.48
2023-07-22T21:03:30.024Z,72.51
2023-07-22T21:05:59.051Z,72.69
2023-07-22T21:08:28.720Z,72.85
2023-07-22T21:10:56.654Z,72.92
2023-07-22T21:13:24.793Z,73.34
2023-07-22T21:15:52.622Z,73.16
2023-07-22T21:18:20.133Z,73.19
2023-07-22T21:20:47.866Z,73.35
2023-07-22T21:23:15.512Z,73.33
2023-07-22T21:25:43.157Z,73.39
2023-07-22T21:28:13.200Z,73.63
2023-07-22T21:30:40.355Z,73.63
2023-07-22T21:33:08.910Z,73.81
2023-07-22T21:35:36.832Z,73.82
2023-07-22T21:38:04.672Z,73.95
2023-07-22T21:40:33.605Z,73.98
2023-07-22T21:43:01.977Z,74.08
2023-07-22T21:45:29.832Z,74.43
2023-07-22T21:47:57.673Z,74.57
2023-07-22T21:50:25.311Z,74.48
2023-07-22T21:52:53.721Z,74.62
2023-07-22T21:55:22.211Z,74.87
2023-07-22T21:57:50.050Z,74.97
2023-07-22T22:00:17.812Z,75.20
2023-07-22T22:02:45.526Z,75.40
2023-07-22T22:05:13.221Z,75.39
2023-07-22T22:07:41.756Z,75.60
2023-07-22T22:10:09.733Z,75.87
2023-07-22T22:12:40.971Z,75.99
2023-07-22T22:15:10.060Z,76.03
2023-07-22T22:17:54.361Z,76.32
2023-07-22T22:20:10.726Z,76.36
2023-07-22T22:22:39.762Z,76.53
2023-07-22T22:25:08.490Z,76.42
2023-07-22T22:27:36.653Z,76.29
2023-07-22T22:30:05.465Z,76.26
2023-07-22T22:32:33.269Z,76.20
2023-07-22T22:35:00.930Z,76.19
2023-07-22T22:37:28.673Z,76.08
2023-07-22T22:39:56.712Z,76.12
2023-07-22T22:42:25.130Z,76.03
2023-07-22T22:44:52.963Z,75.99
2023-07-22T22:47:20.651Z,75.99
2023-07-22T22:49:48.527Z,76.35
2023-07-22T22:52:15.971Z,76.86
2023-07-22T22:54:44.674Z,76.94
2023-07-22T22:57:12.624Z,77.29
2023-07-22T22:59:40.278Z,77.29
2023-07-22T23:02:08.113Z,77.85
2023-07-22T23:04:35.970Z,77.69
2023-07-22T23:07:04.616Z,77.77
2023-07-22T23:09:32.663Z,77.93
2023-07-22T23:12:00.525Z,77.88
2023-07-22T23:14:28.091Z,78.18
2023-07-22T23:16:55.858Z,78.03
2023-07-22T23:19:23.406Z,78.09
2023-07-22T23:21:51.272Z,78.06
2023-07-22T23:24:19.026Z,78.12
2023-07-22T23:26:46.604Z,78.30
2023-07-22T23:29:14.390Z,78.29
2023-07-22T23:31:42.368Z,78.18
2023-07-22T23:34:11.854Z,78.18
2023-07-22T23:36:39.352Z,78.20
2023-07-22T23:39:07.043Z,78.05
2023-07-22T23:41:34.669Z,78.09
2023-07-22T23:44:03.870Z,78.18
2023-07-22T23:46:32.372Z,78.08
2023-07-22T23:48:59.944Z,78.15
2023-07-22T23:51:28.282Z,78.19
2023-07-22T23:53:56.237Z,78.11
2023-07-22T23:56:24.360Z,78.20
2023-07-22T23:58:52.011Z,78.24
